Time;durP1;ratioP1;P1;durP2;ratioP2;P2;SDS_P1;SDS_P2;PMS_P1;PMS_P2;Temp;Humidity;BMP_temperature;BMP_pressure;BME280_temperature;BME280_humidity;BME280_pressure;Samples;Min_cycle;Max_cycle;Signal;HPM_P1;HPM_P2
2023/01/28 00:00:20;;;;;;;1.48;0.40;;;;;;;0.69;79.13;102165.63;4941853;28;20043;-78
2023/01/28 00:02:48;;;;;;;3.05;0.60;;;;;;;0.71;78.81;102164.03;4912766;28;20051;-80
2023/01/28 00:05:15;;;;;;;2.30;0.63;;;;;;;0.69;78.20;102168.19;4958066;28;20048;-79
2023/01/28 00:07:41;;;;;;;8.48;0.85;;;;;;;0.66;78.92;102163.75;4943112;28;20062;-79
2023/01/28 00:10:09;;;;;;;2.75;0.80;;;;;;;0.65;77.90;102161.97;4942446;28;20071;-78
2023/01/28 00:12:36;;;;;;;3.58;0.55;;;;;;;0.65;78.47;102164.56;4929510;28;20513;-81
2023/01/28 00:15:03;;;;;;;0.65;0.30;;;;;;;0.67;78.26;102167.25;4934502;28;20053;-79
2023/01/28 00:17:29;;;;;;;2.22;0.47;;;;;;;0.65;78.59;102162.88;4926426;28;20053;-79
2023/01/28 00:19:56;;;;;;;4.38;0.40;;;;;;;0.68;78.52;102161.25;4930245;28;20053;-80
2023/01/28 00:22:23;;;;;;;2.38;0.50;;;;;;;0.68;78.50;102159.59;4932524;28;20043;-79
2023/01/28 00:24:49;;;;;;;2.35;0.30;;;;;;;0.69;78.23;102156.19;4931000;28;20604;-78
2023/01/28 00:27:16;;;;;;;0.47;0.38;;;;;;;0.69;79.06;102148.47;4941521;28;20129;-79
2023/01/28 00:29:45;;;;;;;3.08;0.50;;;;;;;0.67;78.14;102151.78;4923432;28;20046;-79
2023/01/28 00:32:12;;;;;;;0.80;0.50;;;;;;;0.68;78.27;102156.13;4930682;28;20051;-78
2023/01/28 00:34:38;;;;;;;1.40;0.30;;;;;;;0.64;77.47;102161.09;4935944;28;20046;-79
2023/01/28 00:37:05;;;;;;;3.15;0.77;;;;;;;0.65;77.87;102168.03;4950045;28;20102;-78
2023/01/28 00:39:32;;;;;;;1.27;0.38;;;;;;;0.64;77.34;102163.69;4934099;28;20051;-81
2023/01/28 00:41:59;;;;;;;1.45;0.40;;;;;;;0.65;76.62;102164.56;4962946;28;20588;-79
2023/01/28 00:44:26;;;;;;;2.45;0.60;;;;;;;0.64;77.30;102155.94;4931309;28;20058;-78
2023/01/28 00:46:53;;;;;;;0.85;0.30;;;;;;;0.65;78.20;102159.41;4943636;28;20059;-80
2023/01/28 00:49:20;;;;;;;2.47;0.30;;;;;;;0.65;77.83;102160.31;4949889;28;20749;-78
2023/01/28 00:51:47;;;;;;;2.35;0.38;;;;;;;0.65;77.51;102161.97;4935127;28;20058;-81
2023/01/28 00:54:17;;;;;;;1.48;0.30;;;;;;;0.65;77.88;102157.72;4936647;28;20039;-78
2023/01/28 00:56:52;;;;;;;1.52;0.43;;;;;;;0.65;77.86;102157.72;4942172;28;20599;-81
2023/01/28 00:59:19;;;;;;;0.98;0.75;;;;;;;0.65;77.75;102157.72;4917930;28;20102;-78
2023/01/28 01:01:46;;;;;;;4.25;0.28;;;;;;;0.64;77.89;102152.50;4939978;28;20100;-78
2023/01/28 01:04:25;;;;;;;1.17;0.30;;;;;;;0.64;77.63;102161.09;4950114;28;20942;-78
2023/01/28 01:06:55;;;;;;;2.00;0.60;;;;;;;0.64;77.00;102155.94;4945186;28;20055;-78
2023/01/28 01:09:21;;;;;;;1.52;0.47;;;;;;;0.64;76.83;102149.91;4961598;28;20035;-82
2023/01/28 01:11:49;;;;;;;1.05;0.50;;;;;;;0.62;76.25;102147.22;4947391;28;20082;-77
2023/01/28 01:14:16;;;;;;;1.60;0.40;;;;;;;0.60;76.75;102156.59;4947088;28;20057;-79
2023/01/28 01:16:42;;;;;;;1.75;0.28;;;;;;;0.60;76.99;102150.53;4936136;28;20074;-80
2023/01/28 01:19:11;;;;;;;1.65;0.28;;;;;;;0.60;76.88;102154.00;4945710;28;20062;-80
2023/01/28 01:21:37;;;;;;;1.27;0.50;;;;;;;0.60;77.03;102155.69;4947756;28;20046;-78
2023/01/28 01:24:05;;;;;;;0.38;0.30;;;;;;;0.60;77.21;102158.25;4959947;28;20502;-78
2023/01/28 01:26:33;;;;;;;2.10;0.38;;;;;;;0.60;76.74;102151.44;4963807;28;20042;-78
2023/01/28 01:29:01;;;;;;;2.47;0.88;;;;;;;0.60;77.51;102151.44;4946475;28;20047;-81
2023/01/28 01:31:28;;;;;;;0.65;0.65;;;;;;;0.61;77.72;102152.31;4933993;28;20047;-79
2023/01/28 01:33:55;;;;;;;1.80;0.30;;;;;;;0.60;77.37;102159.16;4942470;28;20461;-80
2023/01/28 01:36:23;;;;;;;3.13;0.63;;;;;;;0.59;76.88;102154.81;4945875;28;20530;-80
2023/01/28 01:38:55;;;;;;;8.85;1.08;;;;;;;0.60;77.30;102153.09;4936288;28;20051;-78
2023/01/28 01:41:32;;;;;;;4.57;1.10;;;;;;;0.61;77.40;102162.63;4941259;28;20434;-80
2023/01/28 01:44:02;;;;;;;1.30;0.57;;;;;;;0.60;76.71;102163.41;4937745;28;20042;-79
2023/01/28 01:46:46;;;;;;;1.80;0.50;;;;;;;0.58;76.87;102168.47;4919264;28;20047;-78
2023/01/28 01:49:26;;;;;;;2.90;0.40;;;;;;;0.59;77.28;102167.69;4922697;28;20054;-81
2023/01/28 01:52:14;;;;;;;2.85;0.60;;;;;;;0.56;76.03;102164.94;4939092;28;20761;-78
2023/01/28 01:54:48;;;;;;;1.50;0.30;;;;;;;0.54;77.00;102163.97;4946246;28;20081;-78
2023/01/28 01:57:22;;;;;;;2.63;0.40;;;;;;;0.56;77.30;102158.91;4939891;28;20055;-78
2023/01/28 01:59:49;;;;;;;0.68;0.30;;;;;;;0.56;77.18;102166.63;4943361;28;20449;-83
2023/01/28 02:02:16;;;;;;;7.60;0.77;;;;;;;0.56;77.36;102171.78;4928890;28;20055;-81
2023/01/28 02:04:44;;;;;;;1.17;0.50;;;;;;;0.55;76.88;102177.72;4944726;28;20043;-81
2023/01/28 02:07:18;;;;;;;3.35;0.52;;;;;;;0.55;77.67;102175.16;4948009;28;20375;-78
2023/01/28 02:09:47;;;;;;;1.20;0.50;;;;;;;0.54;77.39;102178.56;4939071;28;20047;-79
2023/01/28 02:12:23;;;;;;;1.33;0.30;;;;;;;0.53;77.70;102176.78;4943766;28;20050;-81
2023/01/28 02:15:06;;;;;;;2.45;0.30;;;;;;;0.53;77.75;102180.22;4940403;28;20046;-78
2023/01/28 02:17:33;;;;;;;0.40;0.40;;;;;;;0.54;77.58;102183.72;4908225;28;20057;-78
2023/01/28 02:20:12;;;;;;;0.93;0.30;;;;;;;0.54;77.43;102179.44;4941332;28;20079;-77
2023/01/28 02:23:07;;;;;;;1.45;0.50;;;;;;;0.55;77.76;102188.03;4915568;28;20051;-79
2023/01/28 02:26:22;;;;;;;0.35;0.35;;;;;;;0.52;76.08;102180.13;4926614;28;20055;-81
2023/01/28 02:29:24;;;;;;;1.75;0.40;;;;;;;0.49;76.83;102180.84;4939416;28;20046;-78
2023/01/28 02:32:05;;;;;;;1.08;0.50;;;;;;;0.48;76.33;102184.22;4919646;28;20064;-79
2023/01/28 02:34:45;;;;;;;0.63;0.40;;;;;;;0.48;76.57;102186.81;4925302;28;20047;-79
2023/01/28 02:37:24;;;;;;;0.38;0.30;;;;;;;0.48;76.40;102177.41;4939226;28;20130;-78
2023/01/28 02:40:05;;;;;;;0.35;0.30;;;;;;;0.46;76.34;102178.13;4926535;28;20054;-81
2023/01/28 02:42:35;;;;;;;5.45;0.60;;;;;;;0.44;75.51;102183.19;4928324;28;20068;-81
2023/01/28 02:45:02;;;;;;;1.67;0.47;;;;;;;0.41;75.91;102179.53;4944538;28;20122;-78
2023/01/28 02:50:16;;;;;;;0.55;0.20;;;;;;;0.33;75.50;102169.66;4954076;28;20378;-78
2023/01/28 02:56:20;;;;;;;2.38;0.40;;;;;;;0.31;75.95;102160.97;4949787;28;20113;-80
2023/01/28 03:02:04;;;;;;;0.40;0.30;;;;;;;0.33;76.43;102159.38;4943608;28;20092;-83
2023/01/28 03:04:38;;;;;;;3.40;0.40;;;;;;;0.32;75.56;102161.84;4939641;28;20069;-80
2023/01/28 03:07:09;;;;;;;0.38;0.38;;;;;;;0.29;76.26;102165.16;4962370;28;20039;-80
2023/01/28 03:09:36;;;;;;;2.13;1.02;;;;;;;0.28;76.33;102165.94;4957612;28;20122;-81
2023/01/28 03:38:19;;;;;;;1.42;0.55;;;;;;;0.09;76.26;102152.81;4945801;28;20174;-79
2023/01/28 03:41:00;;;;;;;2.38;0.82;;;;;;;0.05;75.70;102151.72;4955545;28;20122;-79
2023/01/28 03:43:27;;;;;;;1.13;0.63;;;;;;;0.04;76.31;102160.28;4942691;28;20118;-78
2023/01/28 03:45:54;;;;;;;1.40;0.68;;;;;;;0.07;76.43;102162.16;4945450;28;20043;-78
2023/01/28 03:48:24;;;;;;;2.10;0.60;;;;;;;0.12;76.59;102168.44;4954263;28;20042;-79
2023/01/28 03:50:51;;;;;;;1.05;0.45;;;;;;;0.14;76.94;102162.59;4948461;28;20050;-78
2023/01/28 03:53:19;;;;;;;1.63;0.50;;;;;;;0.18;76.72;102163.63;4948951;28;20130;-79
2023/01/28 03:55:50;;;;;;;0.40;0.40;;;;;;;0.19;77.44;102170.56;4950374;28;20477;-78
2023/01/28 03:58:17;;;;;;;0.75;0.40;;;;;;;0.22;77.50;102164.69;4948894;28;20045;-78
2023/01/28 04:00:44;;;;;;;1.20;0.70;;;;;;;0.25;77.36;102162.28;4964295;28;20043;-79
2023/01/28 04:03:17;;;;;;;2.03;0.65;;;;;;;0.27;77.68;102165.84;4942334;28;20050;-79
2023/01/28 04:05:59;;;;;;;0.90;0.90;;;;;;;0.28;77.17;102171.09;4927605;28;20095;-79
2023/01/28 04:08:25;;;;;;;2.40;0.60;;;;;;;0.26;77.23;102166.66;4947267;28;20047;-82
2023/01/28 04:10:53;;;;;;;0.93;0.68;;;;;;;0.23;77.01;102177.66;4944352;28;20058;-79
2023/01/28 04:13:19;;;;;;;1.55;1.17;;;;;;;0.20;77.26;102169.78;4948070;28;20057;-79
2023/01/28 04:15:47;;;;;;;3.42;1.00;;;;;;;0.23;77.23;102182.81;4929688;28;20047;-80
2023/01/28 04:18:13;;;;;;;1.50;0.80;;;;;;;0.22;77.16;102181.06;4927152;28;20054;-82
2023/01/28 04:20:40;;;;;;;4.40;0.80;;;;;;;0.23;77.14;102184.50;4945330;28;20453;-79
2023/01/28 04:23:07;;;;;;;1.50;0.50;;;;;;;0.23;77.06;102189.66;4934383;28;20050;-79
2023/01/28 04:25:35;;;;;;;0.65;0.50;;;;;;;0.22;77.14;102191.38;4943911;28;21064;-79
2023/01/28 04:28:02;;;;;;;1.08;0.70;;;;;;;0.22;76.23;102193.94;4939920;28;20512;-81
2023/01/28 04:30:29;;;;;;;1.10;0.50;;;;;;;0.16;76.30;102189.31;4943938;28;20044;-79
2023/01/28 04:32:55;;;;;;;1.02;0.80;;;;;;;0.13;75.83;102199.44;4930756;28;20145;-79
2023/01/28 04:35:22;;;;;;;0.88;0.60;;;;;;;0.09;75.81;102192.34;4948564;28;20055;-81
2023/01/28 04:37:48;;;;;;;2.42;0.80;;;;;;;0.07;76.00;102199.06;4944091;28;20759;-78
2023/01/28 04:40:15;;;;;;;3.50;0.55;;;;;;;0.07;76.38;102199.06;4956721;28;20066;-80
2023/01/28 04:42:42;;;;;;;0.65;0.63;;;;;;;0.06;77.15;102199.84;4945202;28;20383;-79
2023/01/28 04:45:09;;;;;;;0.50;0.45;;;;;;;0.08;76.96;102194.78;4914391;28;20109;-79
2023/01/28 04:47:35;;;;;;;0.55;0.47;;;;;;;0.11;77.41;102192.41;4950721;28;20047;-78
2023/01/28 04:50:02;;;;;;;5.25;0.88;;;;;;;0.09;77.68;102200.06;4926118;28;20058;-80
2023/01/28 04:52:28;;;;;;;2.17;0.80;;;;;;;0.08;77.95;102198.28;4928668;28;20372;-79
2023/01/28 04:54:55;;;;;;;3.00;0.40;;;;;;;0.09;77.96;102194.91;4929245;28;20094;-78
2023/01/28 04:57:22;;;;;;;1.45;0.43;;;;;;;0.14;78.30;102197.72;4929772;28;20051;-80
2023/01/28 04:59:48;;;;;;;3.10;0.70;;;;;;;0.15;78.04;102202.97;4941633;28;20043;-78
2023/01/28 05:02:14;;;;;;;1.08;0.50;;;;;;;0.16;77.38;102206.44;4936578;28;20126;-80
2023/01/28 05:04:41;;;;;;;1.30;0.52;;;;;;;0.12;76.96;102204.50;4940542;28;20043;-79
2023/01/28 05:07:07;;;;;;;0.77;0.73;;;;;;;0.10;77.15;102198.34;4954445;28;20043;-79
2023/01/28 05:09:34;;;;;;;0.98;0.68;;;;;;;0.09;77.68;102201.72;4932427;28;20046;-78
2023/01/28 05:12:00;;;;;;;0.85;0.40;;;;;;;0.12;77.50;102207.06;4937946;28;20101;-78
2023/01/28 05:14:27;;;;;;;1.48;0.40;;;;;;;0.13;77.66;102208.81;4950929;28;20067;-81
2023/01/28 05:16:54;;;;;;;2.05;0.73;;;;;;;0.13;77.64;102202.00;4931462;28;20047;-80
2023/01/28 05:19:20;;;;;;;4.65;0.75;;;;;;;0.15;77.74;102209.81;4931872;28;20051;-80
2023/01/28 05:21:48;;;;;;;1.50;0.50;;;;;;;0.12;77.55;102197.66;4939582;28;20454;-79
2023/01/28 05:24:14;;;;;;;0.95;0.70;;;;;;;0.10;77.21;102191.50;4956064;28;20043;-79
2023/01/28 05:26:41;;;;;;;0.77;0.63;;;;;;;0.10;76.98;102194.09;4935210;28;20043;-79
2023/01/28 05:29:08;;;;;;;1.88;0.70;;;;;;;0.03;76.78;102199.69;4950978;28;20607;-80
2023/01/28 05:31:35;;;;;;;1.38;0.50;;;;;;;0.01;76.84;102202.97;4951285;28;20062;-79
2023/01/28 05:34:01;;;;;;;0.57;0.50;;;;;;;-0.02;76.51;102191.69;4953675;28;20047;-77
2023/01/28 05:36:27;;;;;;;0.40;0.40;;;;;;;-0.05;76.70;102181.22;4950577;28;20042;-77
2023/01/28 05:38:54;;;;;;;2.78;0.90;;;;;;;-0.06;76.92;102187.16;4964981;28;20126;-78
2023/01/28 05:41:20;;;;;;;1.75;0.63;;;;;;;-0.05;77.21;102181.22;4943511;28;20060;-79
2023/01/28 05:43:47;;;;;;;0.63;0.50;;;;;;;-0.03;77.47;102186.44;4934146;28;20800;-78
2023/01/28 05:46:14;;;;;;;1.02;0.52;;;;;;;-0.03;77.27;102187.34;4951575;28;20137;-79
2023/01/28 05:48:40;;;;;;;0.77;0.47;;;;;;;-0.02;77.09;102191.69;4932574;28;20518;-78
2023/01/28 05:51:07;;;;;;;0.98;0.75;;;;;;;-0.03;77.52;102191.59;4918034;28;20389;-77
2023/01/28 05:53:33;;;;;;;1.75;0.50;;;;;;;-0.02;77.75;102201.97;4962115;28;20038;-78
2023/01/28 05:56:00;;;;;;;1.95;0.70;;;;;;;-0.01;77.45;102195.16;4952639;28;20043;-79
2023/01/28 05:58:29;;;;;;;1.60;0.88;;;;;;;-0.04;77.46;102200.09;4955518;28;20050;-82
2023/01/28 06:00:56;;;;;;;2.30;0.60;;;;;;;-0.04;77.12;102194.97;4943690;28;20055;-79
2023/01/28 06:03:23;;;;;;;1.23;0.68;;;;;;;-0.07;76.62;102194.78;4942384;28;20062;-78
2023/01/28 06:05:52;;;;;;;6.03;0.85;;;;;;;-0.08;76.58;102193.91;4961039;28;20061;-78
2023/01/28 06:08:19;;;;;;;1.10;0.75;;;;;;;-0.09;76.35;102193.78;4944992;28;20043;-77
2023/01/28 06:10:46;;;;;;;1.70;0.50;;;;;;;-0.09;77.36;102191.22;4942321;28;20171;-78
2023/01/28 06:13:13;;;;;;;4.35;0.50;;;;;;;-0.09;77.29;102194.72;4943936;28;20102;-79
2023/01/28 06:15:39;;;;;;;4.30;0.85;;;;;;;-0.10;77.80;102195.50;4958782;28;20043;-79
2023/01/28 06:18:06;;;;;;;1.35;1.00;;;;;;;-0.10;76.96;102199.78;4946572;28;20051;-80
2023/01/28 06:20:32;;;;;;;0.90;0.80;;;;;;;-0.12;77.12;102199.66;4947222;28;20043;-81
2023/01/28 06:22:59;;;;;;;1.42;0.85;;;;;;;-0.11;77.32;102198.88;4935711;28;20150;-78
2023/01/28 06:25:25;;;;;;;0.95;0.70;;;;;;;-0.11;77.73;102193.72;4949054;28;22203;-78
2023/01/28 06:27:52;;;;;;;0.55;0.55;;;;;;;-0.10;77.55;102192.91;4930757;28;20459;-79
2023/01/28 06:30:18;;;;;;;1.83;1.00;;;;;;;-0.09;77.26;102201.53;4936469;28;20400;-78
2023/01/28 06:32:45;;;;;;;0.73;0.73;;;;;;;-0.11;77.23;102198.88;4937751;28;20667;-78
2023/01/28 06:35:12;;;;;;;5.72;0.63;;;;;;;-0.09;77.48;102209.25;4946913;28;20043;-77
2023/01/28 06:37:38;;;;;;;2.50;0.50;;;;;;;-0.08;77.51;102208.44;4950690;28;20090;-78
2023/01/28 06:40:05;;;;;;;2.25;0.70;;;;;;;-0.08;77.65;102200.72;4930231;28;20046;-78
2023/01/28 06:42:32;;;;;;;4.50;0.52;;;;;;;-0.10;76.83;102194.63;4945838;28;20050;-81
2023/01/28 06:44:59;;;;;;;2.83;0.90;;;;;;;-0.10;77.75;102198.06;4934219;28;20062;-80
2023/01/28 06:47:25;;;;;;;1.95;1.55;;;;;;;-0.10;77.19;102200.66;4931140;28;20054;-84
2023/01/28 06:49:52;;;;;;;2.80;1.08;;;;;;;-0.11;78.27;102210.84;4934158;28;20081;-79
2023/01/28 06:52:18;;;;;;;2.72;0.60;;;;;;;-0.10;78.07;102210.06;4933925;28;20051;-82
2023/01/28 06:54:45;;;;;;;0.60;0.60;;;;;;;-0.11;78.02;102209.16;4933124;28;20486;-80
2023/01/28 06:57:12;;;;;;;4.93;2.20;;;;;;;-0.14;77.04;102201.25;4931673;28;20057;-80
2023/01/28 06:59:38;;;;;;;4.22;1.00;;;;;;;-0.14;78.03;102203.84;4927051;28;20051;-80
2023/01/28 07:02:05;;;;;;;1.10;0.70;;;;;;;-0.13;78.57;102204.72;4944290;28;20051;-83
2023/01/28 07:04:31;;;;;;;1.77;1.67;;;;;;;-0.13;77.64;102207.28;4941802;28;20043;-79
2023/01/28 07:06:58;;;;;;;2.83;0.75;;;;;;;-0.16;77.33;102205.41;4944671;28;20108;-78
2023/01/28 07:09:24;;;;;;;2.60;1.15;;;;;;;-0.19;76.91;102212.97;4949204;28;20066;-78
2023/01/28 07:11:53;;;;;;;3.22;1.60;;;;;;;-0.26;76.93;102209.13;4948401;28;20779;-79
2023/01/28 07:14:20;;;;;;;5.00;2.10;;;;;;;-0.26;77.21;102204.00;4945046;28;20138;-78
2023/01/28 07:16:46;;;;;;;1.73;1.63;;;;;;;-0.25;77.37;102202.28;4935022;28;20055;-80
2023/01/28 07:19:13;;;;;;;1.92;1.40;;;;;;;-0.24;77.29;102202.38;4945633;28;20114;-81
2023/01/28 07:21:39;;;;;;;4.18;1.13;;;;;;;-0.23;76.94;102206.75;4942883;28;20587;-78
2023/01/28 07:24:07;;;;;;;3.45;1.23;;;;;;;-0.21;76.81;102214.53;4941725;28;20077;-79
2023/01/28 07:26:34;;;;;;;3.80;1.70;;;;;;;-0.23;76.67;102214.47;4939632;28;20126;-82
2023/01/28 07:29:00;;;;;;;7.68;1.33;;;;;;;-0.20;77.46;102227.50;4959968;28;20493;-81
2023/01/28 07:31:27;;;;;;;2.72;1.02;;;;;;;-0.17;76.75;102225.13;4941866;28;20051;-80
2023/01/28 07:33:54;;;;;;;1.00;1.00;;;;;;;-0.13;77.38;102212.44;4937895;28;20054;-80
2023/01/28 07:36:20;;;;;;;1.42;1.10;;;;;;;-0.10;77.04;102215.22;4942813;28;20077;-78
2023/01/28 07:38:47;;;;;;;3.90;0.98;;;;;;;-0.13;76.33;102210.78;4946483;28;20054;-79
2023/01/28 07:41:14;;;;;;;3.55;1.23;;;;;;;-0.15;76.20;102214.91;4934108;28;20090;-80
2023/01/28 07:43:40;;;;;;;6.25;1.63;;;;;;;-0.15;76.66;102214.91;4945606;28;20050;-78
2023/01/28 07:46:07;;;;;;;2.05;1.20;;;;;;;-0.13;76.34;102221.06;4944996;28;20122;-80
2023/01/28 07:48:34;;;;;;;1.95;0.95;;;;;;;-0.14;75.69;102221.84;4941527;28;20040;-78
2023/01/28 07:51:02;;;;;;;1.88;1.75;;;;;;;-0.17;76.14;102227.72;4946054;28;20058;-78
2023/01/28 07:53:29;;;;;;;2.15;1.90;;;;;;;-0.14;76.69;102228.66;4942858;28;20050;-80
2023/01/28 07:56:00;;;;;;;4.93;1.60;;;;;;;-0.09;76.74;102230.75;4940017;28;20097;-79
2023/01/28 07:58:27;;;;;;;1.23;1.13;;;;;;;-0.06;76.54;102230.91;4925809;28;20046;-79
2023/01/28 08:00:58;;;;;;;1.60;1.50;;;;;;;-0.05;74.81;102224.97;4929524;28;20741;-78
2023/01/28 08:03:25;;;;;;;1.40;1.08;;;;;;;-0.11;74.99;102228.88;4948597;28;20046;-79
2023/01/28 08:05:55;;;;;;;1.00;0.88;;;;;;;-0.18;74.26;102236.22;4957671;28;20047;-79
2023/01/28 08:08:25;;;;;;;2.05;0.82;;;;;;;-0.22;74.31;102233.34;4947219;28;20141;-79
2023/01/28 08:10:52;;;;;;;3.33;1.25;;;;;;;-0.26;75.50;102234.88;4950267;28;20047;-82
2023/01/28 08:13:19;;;;;;;2.60;1.17;;;;;;;-0.23;75.07;102244.47;4935425;28;21058;-79
2023/01/28 08:15:47;;;;;;;1.23;1.20;;;;;;;-0.22;74.90;102244.56;4961938;28;20039;-79
2023/01/28 08:18:16;;;;;;;2.53;1.40;;;;;;;-0.17;75.56;102243.16;4956684;28;20101;-80
2023/01/28 08:20:45;;;;;;;1.52;1.42;;;;;;;-0.04;74.82;102256.75;4962440;28;20059;-81
2023/01/28 08:23:18;;;;;;;1.20;1.20;;;;;;;0.01;74.52;102260.50;4944530;28;20077;-79
2023/01/28 08:25:45;;;;;;;1.60;1.10;;;;;;;0.11;74.60;102269.66;4948037;28;20058;-80
2023/01/28 08:28:13;;;;;;;3.17;2.22;;;;;;;0.18;75.20;102268.34;4945730;28;20046;-80
2023/01/28 08:30:40;;;;;;;3.38;1.48;;;;;;;0.24;74.71;102258.41;4956674;28;20046;-79
2023/01/28 08:33:10;;;;;;;5.50;1.52;;;;;;;0.28;74.87;102260.38;4929540;28;20046;-80
2023/01/28 08:35:37;;;;;;;2.75;2.47;;;;;;;0.30;74.59;102269.97;4948265;28;20043;-79
2023/01/28 08:38:06;;;;;;;1.30;1.20;;;;;;;0.33;74.69;102274.41;4941281;28;20054;-80
2023/01/28 08:40:34;;;;;;;4.72;2.22;;;;;;;0.36;73.95;102274.56;4938111;28;20043;-80
2023/01/28 08:43:02;;;;;;;1.23;1.10;;;;;;;0.37;73.28;102273.78;4938296;28;20051;-79
2023/01/28 08:45:29;;;;;;;1.10;1.10;;;;;;;0.38;73.49;102274.66;4954990;28;20050;-80
2023/01/28 08:48:07;;;;;;;2.78;1.55;;;;;;;0.37;73.27;102294.41;4956565;28;20059;-78
2023/01/28 08:50:36;;;;;;;1.50;0.98;;;;;;;0.35;73.41;102285.66;4946291;28;20043;-80
2023/01/28 08:53:11;;;;;;;1.95;1.48;;;;;;;0.41;74.39;102290.31;4945497;28;20051;-80
2023/01/28 08:55:38;;;;;;;1.77;1.67;;;;;;;0.53;73.86;102290.16;4957616;28;20067;-80
2023/01/28 08:58:11;;;;;;;3.30;1.83;;;;;;;0.63;73.14;102290.75;4957147;28;20075;-81
2023/01/28 09:00:39;;;;;;;1.83;1.60;;;;;;;0.75;72.84;102300.00;4927555;28;20055;-82
2023/01/28 09:03:06;;;;;;;2.22;1.67;;;;;;;0.84;72.40;102302.25;4958730;28;20049;-81
2023/01/28 09:05:36;;;;;;;1.58;1.48;;;;;;;0.87;72.19;102299.84;4974898;28;20047;-79
2023/01/28 09:08:14;;;;;;;2.03;1.60;;;;;;;1.02;72.23;102298.13;4976413;28;20061;-81
2023/01/28 09:10:42;;;;;;;6.80;1.60;;;;;;;1.11;70.96;102310.66;4975151;28;20035;-79
2023/01/28 09:13:16;;;;;;;2.78;1.58;;;;;;;1.13;71.76;102315.09;4960285;28;20259;-79
2023/01/28 09:15:43;;;;;;;4.65;1.60;;;;;;;1.19;71.40;102311.06;4930871;28;20066;-78
2023/01/28 09:18:10;;;;;;;1.73;1.00;;;;;;;1.09;70.98;102310.56;4942655;28;20057;-79
2023/01/28 09:20:38;;;;;;;3.53;1.50;;;;;;;0.99;71.47;102328.88;4950958;29;20035;-80
2023/01/28 09:23:05;;;;;;;2.45;2.20;;;;;;;0.91;71.97;102333.63;4948229;28;20055;-79
2023/01/28 09:25:32;;;;;;;1.83;1.30;;;;;;;0.84;72.38;102330.59;4956438;28;20047;-79
2023/01/28 09:27:59;;;;;;;2.95;1.60;;;;;;;0.78;72.84;102336.28;4950707;28;20518;-85
2023/01/28 09:30:27;;;;;;;5.82;1.70;;;;;;;0.75;73.19;102338.69;4940326;28;20129;-89
2023/01/28 09:32:56;;;;;;;2.65;2.15;;;;;;;0.72;72.93;102339.38;4948128;28;20044;-76
2023/01/28 09:35:23;;;;;;;2.58;1.60;;;;;;;0.65;72.85;102347.53;4953053;28;20047;-77
2023/01/28 09:37:50;;;;;;;5.53;1.98;;;;;;;0.62;72.63;102357.69;4950654;28;20085;-79
2023/01/28 09:40:24;;;;;;;3.97;2.05;;;;;;;0.56;73.11;102358.22;4947638;28;20047;-77
2023/01/28 09:43:28;;;;;;;1.75;1.48;;;;;;;0.54;73.08;102358.94;4945746;28;20425;-79
2023/01/28 09:45:58;;;;;;;4.47;2.05;;;;;;;0.48;73.13;102349.13;4943500;28;20051;-77
2023/01/28 09:48:38;;;;;;;3.78;1.80;;;;;;;0.47;72.83;102347.34;4950796;28;20051;-78
2023/01/28 09:51:11;;;;;;;2.42;1.67;;;;;;;0.53;73.39;102349.41;4938370;28;20062;-77
2023/01/28 09:53:45;;;;;;;2.27;1.73;;;;;;;0.58;72.91;102359.19;4953953;28;20054;-78
2023/01/28 09:56:36;;;;;;;2.10;2.00;;;;;;;0.63;72.55;102347.47;4945327;28;20150;-80
2023/01/28 09:59:22;;;;;;;2.35;2.00;;;;;;;0.64;72.45;102348.38;4949819;28;20055;-78
2023/01/28 10:02:04;;;;;;;2.17;1.90;;;;;;;0.58;72.73;102361.75;4934430;28;20106;-80
2023/01/28 10:05:14;;;;;;;4.10;2.33;;;;;;;0.57;72.71;102359.09;4949190;28;20174;-79
2023/01/28 10:08:06;;;;;;;5.80;2.20;;;;;;;0.53;72.83;102362.28;4963697;28;20039;-76
2023/01/28 10:10:45;;;;;;;2.67;2.10;;;;;;;0.46;72.60;102355.91;4960315;28;20067;-76
2023/01/28 10:13:38;;;;;;;5.30;2.50;;;;;;;0.42;72.64;102349.66;4949933;28;20050;-77
2023/01/28 10:16:20;;;;;;;2.93;2.20;;;;;;;0.38;72.55;102349.38;4948623;28;20095;-77
2023/01/28 10:18:53;;;;;;;2.22;2.13;;;;;;;0.33;73.13;102346.53;4933945;28;20062;-79
2023/01/28 10:21:33;;;;;;;1.85;1.70;;;;;;;0.33;72.52;102343.97;4949361;28;20101;-77
2023/01/28 10:24:35;;;;;;;4.35;2.40;;;;;;;0.38;72.82;102341.63;4960834;28;20110;-77
2023/01/28 10:27:20;;;;;;;2.38;2.17;;;;;;;0.51;71.85;102332.97;4948781;28;20043;-79
2023/01/28 10:29:48;;;;;;;;;;;;;;;0.66;70.90;102344.19;4955071;28;20039;-78
2023/01/28 10:32:34;;;;;;;2.63;2.42;;;;;;;0.85;70.22;102343.56;4941241;28;19929;-78
2023/01/28 10:35:02;;;;;;;2.80;1.90;;;;;;;0.99;69.77;102337.53;4945398;28;20569;-78
2023/01/28 10:37:31;;;;;;;2.08;1.98;;;;;;;1.15;69.43;102326.38;4951905;28;20054;-76
2023/01/28 10:40:02;;;;;;;1.52;1.42;;;;;;;1.31;69.49;102332.41;4957088;28;20054;-78
2023/01/28 10:42:32;;;;;;;5.63;1.83;;;;;;;1.41;67.81;102341.53;4946433;28;20093;-80
2023/01/28 10:45:21;;;;;;;2.42;1.55;;;;;;;1.39;68.16;102344.03;4940749;28;20054;-78
2023/01/28 10:48:07;;;;;;;3.55;1.90;;;;;;;1.34;67.96;102344.59;4937879;28;20063;-79
2023/01/28 10:50:35;;;;;;;1.80;1.70;;;;;;;1.36;67.22;102348.16;4940861;28;20545;-78
2023/01/28 10:53:05;;;;;;;3.08;1.52;;;;;;;1.24;66.72;102346.66;4949097;28;20513;-79
2023/01/28 10:55:58;;;;;;;2.17;1.67;;;;;;;1.12;67.31;102344.28;4943056;28;20549;-78
2023/01/28 10:58:29;;;;;;;2.28;2.03;;;;;;;1.13;67.98;102348.63;4957508;28;20046;-76
2023/01/28 11:01:01;;;;;;;1.90;1.80;;;;;;;1.10;67.98;102347.56;4938920;28;20125;-76
2023/01/28 11:03:29;;;;;;;2.17;1.92;;;;;;;0.92;68.45;102343.13;4926930;28;20047;-78
2023/01/28 11:05:58;;;;;;;2.22;1.92;;;;;;;0.90;68.99;102344.72;4932874;28;20047;-79
2023/01/28 11:08:29;;;;;;;1.85;1.60;;;;;;;0.92;69.14;102343.13;4951053;28;20138;-77
2023/01/28 11:10:57;;;;;;;3.33;1.92;;;;;;;0.92;68.69;102339.66;4944656;28;20107;-77
2023/01/28 11:13:32;;;;;;;3.92;1.80;;;;;;;0.96;69.41;102328.72;4950783;28;20146;-79
2023/01/28 11:16:16;;;;;;;2.13;2.00;;;;;;;1.00;69.67;102328.09;4937740;28;20069;-78
2023/01/28 11:19:05;;;;;;;2.63;1.67;;;;;;;1.06;68.64;102331.03;4937317;28;20042;-77
2023/01/28 11:21:34;;;;;;;14.90;7.45;;;;;;;1.05;68.99;102333.53;4947037;28;20181;-78
2023/01/28 11:24:05;;;;;;;12.98;5.47;;;;;;;1.10;68.96;102332.09;4943741;28;20047;-79
2023/01/28 11:26:39;;;;;;;2.08;1.77;;;;;;;1.15;68.69;102331.53;4933653;28;20074;-78
2023/01/28 11:29:06;;;;;;;5.88;2.63;;;;;;;1.18;68.20;102327.38;4925454;28;20045;-82
2023/01/28 11:31:44;;;;;;;3.58;2.47;;;;;;;1.19;69.00;102330.03;4955162;28;20055;-78
2023/01/28 11:34:18;;;;;;;1.73;1.63;;;;;;;1.29;68.20;102324.59;4951938;28;20073;-78
2023/01/28 11:37:02;;;;;;;;;;;;;;;1.30;67.95;102328.94;4943106;28;20040;-78
2023/01/28 11:39:29;;;;;;;3.90;1.77;;;;;;;1.29;67.30;102319.44;4954769;28;19941;-77
2023/01/28 11:42:16;;;;;;;2.28;1.73;;;;;;;1.35;67.01;102320.56;4956339;28;20050;-78
2023/01/28 11:44:42;;;;;;;3.20;2.50;;;;;;;1.35;67.35;102316.28;4943843;28;20058;-78
2023/01/28 11:47:57;;;;;;;2.75;2.53;;;;;;;1.35;67.08;102307.66;4944838;28;20162;-78
2023/01/28 11:51:26;;;;;;;4.13;2.07;;;;;;;1.49;67.36;102297.28;4947692;28;20160;-79
2023/01/28 11:54:17;;;;;;;3.05;2.85;;;;;;;1.56;66.53;102290.78;4941971;28;20062;-81
2023/01/28 11:57:22;;;;;;;3.03;2.63;;;;;;;1.68;66.62;102280.22;4952080;28;20058;-80
2023/01/28 11:59:59;;;;;;;3.85;1.88;;;;;;;1.89;65.99;102284.75;4956152;28;20466;-80
2023/01/28 12:02:48;;;;;;;2.28;2.00;;;;;;;2.13;65.81;102274.81;4944338;28;20057;-78
2023/01/28 12:05:39;;;;;;;2.53;2.33;;;;;;;2.27;63.77;102280.72;4941340;28;20041;-77
2023/01/28 12:08:33;;;;;;;2.28;2.08;;;;;;;2.02;64.79;102282.03;4959964;28;20048;-78
2023/01/28 12:15:20;;;;;;;2.27;2.07;;;;;;;1.67;66.05;102274.97;4950977;28;20090;-79
2023/01/28 12:18:15;;;;;;;4.55;2.55;;;;;;;1.61;66.02;102272.97;4943738;28;20051;-78
2023/01/28 12:21:09;;;;;;;3.90;2.00;;;;;;;1.32;66.43;102252.50;4955731;28;20051;-80
2023/01/28 12:23:52;;;;;;;3.05;2.30;;;;;;;1.12;67.41;102245.34;4940060;28;20062;-77
2023/01/28 12:26:45;;;;;;;3.05;2.67;;;;;;;1.12;67.99;102217.88;4963116;28;20043;-80
2023/01/28 12:29:33;;;;;;;3.78;2.05;;;;;;;1.17;68.32;102200.06;4955361;28;20104;-78
2023/01/28 12:32:30;;;;;;;2.15;1.95;;;;;;;1.14;68.39;102192.16;4937596;28;20047;-78